createdAt,value
2019-02-16T00:01:46.975Z,3.27
2019-02-16T00:06:51.332Z,3.41
2019-02-16T00:11:55.684Z,3.16
2019-02-16T00:17:01.702Z,3.02
2019-02-16T00:22:06.100Z,3.02
2019-02-16T00:27:10.473Z,3.31
2019-02-16T00:32:14.860Z,2.94
2019-02-16T00:37:19.342Z,2.99
2019-02-16T00:42:25.313Z,3.03
2019-02-16T00:47:29.683Z,2.86
2019-02-16T00:52:34.142Z,2.81
2019-02-16T00:57:38.460Z,2.68
2019-02-16T01:02:42.806Z,2.92
2019-02-16T01:07:47.316Z,2.81
2019-02-16T01:12:51.687Z,3.08
2019-02-16T01:17:56.054Z,2.52
2019-02-16T01:23:00.414Z,2.73
2019-02-16T01:28:04.785Z,2.62
2019-02-16T01:33:09.407Z,2.74
2019-02-16T01:38:13.761Z,2.60
2019-02-16T01:43:18.129Z,2.78
2019-02-16T01:48:22.506Z,2.52
2019-02-16T01:53:26.920Z,2.58
2019-02-16T01:58:31.334Z,2.70
2019-02-16T02:03:35.686Z,2.38
2019-02-16T02:08:40.052Z,2.33
2019-02-16T02:13:44.423Z,2.67
2019-02-16T02:18:48.801Z,2.52
2019-02-16T02:23:53.174Z,2.42
2019-02-16T02:28:57.677Z,2.45
2019-02-16T02:34:02.032Z,2.25
2019-02-16T02:39:06.744Z,2.26
2019-02-16T02:44:12.165Z,2.21
2019-02-16T02:49:16.543Z,2.13
2019-02-16T02:54:20.921Z,2.23
2019-02-16T02:59:25.324Z,2.09
2019-02-16T03:04:29.671Z,2.07
2019-02-16T03:09:34.043Z,1.98
2019-02-16T03:14:38.430Z,2.03
2019-02-16T03:19:42.812Z,2.00
2019-02-16T03:24:47.154Z,1.98
2019-02-16T03:29:57.519Z,1.85
2019-02-16T03:35:22.985Z,2.08
2019-02-16T03:40:27.365Z,1.95
2019-02-16T03:45:31.717Z,1.97
2019-02-16T03:50:37.147Z,1.89
2019-02-16T03:55:41.519Z,1.91
2019-02-16T04:00:45.954Z,1.68
2019-02-16T04:05:50.439Z,1.77
2019-02-16T04:10:54.776Z,1.94
2019-02-16T04:15:59.154Z,1.94
2019-02-16T04:21:03.652Z,2.08
2019-02-16T04:26:08.853Z,2.05
2019-02-16T04:31:13.215Z,1.94
2019-02-16T04:36:17.601Z,2.11
2019-02-16T04:41:21.981Z,1.87
2019-02-16T04:46:26.299Z,2.00
2019-02-16T04:51:30.693Z,2.00
2019-02-16T04:56:35.091Z,2.08
2019-02-16T05:01:39.462Z,1.87
2019-02-16T05:06:43.804Z,1.90
2019-02-16T05:11:48.648Z,1.76
2019-02-16T05:16:53.016Z,1.64
2019-02-16T05:21:57.406Z,1.83
2019-02-16T05:27:01.804Z,1.76
2019-02-16T05:32:06.136Z,1.95
2019-02-16T05:37:10.534Z,1.72
2019-02-16T05:42:14.920Z,1.66
2019-02-16T05:47:19.311Z,1.84
2019-02-16T05:52:23.669Z,1.71
2019-02-16T05:57:28.098Z,1.74
2019-02-16T06:02:32.472Z,1.68
2019-02-16T06:07:36.852Z,1.73
2019-02-16T06:12:41.365Z,1.68
2019-02-16T06:17:45.715Z,1.67
2019-02-16T06:22:50.090Z,2.13
2019-02-16T06:27:54.458Z,1.94
2019-02-16T06:32:58.902Z,1.90
2019-02-16T06:38:03.279Z,1.66
2019-02-16T06:43:07.651Z,1.91
2019-02-16T06:48:12.138Z,1.97
2019-02-16T06:53:16.514Z,2.20
2019-02-16T06:58:21.420Z,2.24
2019-02-16T07:03:26.873Z,2.71
2019-02-16T07:08:31.277Z,2.87
2019-02-16T07:13:35.634Z,2.77
2019-02-16T07:18:41.661Z,2.78
2019-02-16T07:23:46.021Z,2.72
2019-02-16T07:28:50.405Z,3.01
2019-02-16T07:33:54.792Z,3.13
2019-02-16T07:38:59.149Z,3.64
2019-02-16T07:44:05.220Z,3.63
2019-02-16T07:49:13.752Z,3.76
2019-02-16T07:54:19.813Z,4.16
2019-02-16T07:59:28.691Z,4.32
2019-02-16T08:04:46.596Z,4.48
2019-02-16T08:10:01.751Z,4.53
2019-02-16T08:15:14.620Z,4.43
2019-02-16T08:20:20.705Z,4.86
2019-02-16T08:25:38.807Z,4.92
2019-02-16T08:30:53.780Z,4.86
2019-02-16T08:36:18.445Z,5.26
2019-02-16T08:41:30.309Z,5.38
2019-02-16T08:46:42.409Z,5.42
2019-02-16T08:51:51.173Z,5.58
2019-02-16T08:56:59.893Z,5.71
2019-02-16T09:02:05.904Z,5.79
2019-02-16T09:07:11.942Z,5.97
2019-02-16T09:12:34.160Z,6.03
2019-02-16T09:17:55.315Z,6.34
2019-02-16T09:23:03.760Z,6.47
2019-02-16T09:28:09.769Z,6.57
2019-02-16T09:33:15.770Z,6.80
2019-02-16T09:38:21.805Z,6.80
2019-02-16T09:43:44.077Z,7.03
2019-02-16T09:48:50.165Z,7.38
2019-02-16T09:54:12.372Z,7.30
2019-02-16T09:59:18.368Z,7.56
2019-02-16T10:04:26.900Z,7.67
2019-02-16T10:09:44.710Z,7.97
2019-02-16T10:14:50.767Z,8.18
2019-02-16T10:20:12.751Z,8.27
2019-02-16T10:25:18.781Z,8.63
2019-02-16T10:30:24.832Z,8.80
2019-02-16T10:35:40.135Z,8.97
2019-02-16T10:40:48.906Z,8.87
2019-02-16T10:46:07.205Z,9.30
2019-02-16T10:51:17.595Z,9.34
2019-02-16T10:56:25.846Z,9.36
2019-02-16T11:01:37.575Z,9.55
2019-02-16T11:06:46.492Z,9.69
2019-02-16T11:12:04.255Z,9.74
2019-02-16T11:17:17.933Z,10.04
2019-02-16T11:22:26.897Z,10.09
2019-02-16T11:27:35.866Z,10.28
2019-02-16T11:32:49.664Z,10.70
2019-02-16T11:38:04.807Z,10.59
2019-02-16T11:43:26.014Z,10.80
2019-02-16T11:48:32.098Z,10.84
2019-02-16T11:53:54.599Z,11.16
2019-02-16T11:59:06.357Z,11.72
2019-02-16T12:04:18.066Z,11.83
2019-02-16T12:09:33.233Z,11.61
2019-02-16T12:14:48.501Z,11.84
2019-02-16T12:19:54.567Z,11.68
2019-02-16T12:25:06.102Z,11.87
2019-02-16T12:30:23.687Z,12.08
2019-02-16T12:35:41.795Z,12.13
2019-02-16T12:40:47.878Z,12.20
2019-02-16T12:46:02.879Z,12.33
2019-02-16T12:51:09.046Z,12.38
2019-02-16T12:56:17.992Z,12.47
2019-02-16T13:01:24.007Z,12.62
2019-02-16T13:06:39.306Z,12.54
2019-02-16T13:11:45.317Z,12.78
2019-02-16T13:16:54.247Z,12.86
2019-02-16T13:22:02.848Z,12.92
2019-02-16T13:27:08.931Z,13.40
2019-02-16T13:32:27.183Z,13.20
2019-02-16T13:37:48.308Z,13.24
2019-02-16T13:43:06.668Z,13.22
2019-02-16T13:48:29.207Z,13.26
2019-02-16T13:53:38.355Z,13.79
2019-02-16T13:58:47.328Z,13.34
2019-02-16T14:04:11.751Z,13.64
2019-02-16T14:09:17.785Z,13.69
2019-02-16T14:14:23.879Z,13.59
2019-02-16T14:19:28.245Z,13.48
2019-02-16T14:24:43.581Z,13.63
2019-02-16T14:29:47.966Z,13.63
2019-02-16T14:34:52.319Z,13.73
2019-02-16T14:39:56.751Z,13.67
2019-02-16T14:45:01.130Z,13.50
2019-02-16T14:50:08.027Z,13.56
2019-02-16T14:55:14.715Z,13.44
2019-02-16T15:00:20.420Z,13.42
2019-02-16T15:05:25.254Z,13.40
2019-02-16T15:10:29.638Z,13.30
2019-02-16T15:15:34.015Z,13.41
2019-02-16T15:20:38.409Z,13.16
2019-02-16T15:25:42.777Z,13.12
2019-02-16T15:30:47.157Z,13.20
2019-02-16T15:35:51.539Z,12.89
2019-02-16T15:40:55.920Z,12.90
2019-02-16T15:46:00.303Z,12.76
2019-02-16T15:51:04.731Z,12.61
2019-02-16T15:56:10.811Z,12.60
2019-02-16T16:01:15.484Z,12.75
2019-02-16T16:06:19.894Z,12.46
2019-02-16T16:11:32.166Z,12.27
2019-02-16T16:16:38.156Z,12.31
2019-02-16T16:21:44.241Z,12.21
2019-02-16T16:27:02.439Z,11.86
2019-02-16T16:32:08.437Z,11.67
2019-02-16T16:37:20.578Z,11.52
2019-02-16T16:42:33.007Z,11.30
2019-02-16T16:47:45.039Z,11.10
2019-02-16T16:53:07.884Z,11.04
2019-02-16T16:58:26.828Z,10.65
2019-02-16T17:03:41.760Z,10.68
2019-02-16T17:08:53.719Z,10.41
2019-02-16T17:14:05.512Z,10.34
2019-02-16T17:19:11.848Z,10.20
2019-02-16T17:24:32.672Z,10.48
2019-02-16T17:29:38.748Z,10.22
2019-02-16T17:34:52.684Z,10.05
2019-02-16T17:40:06.090Z,9.63
2019-02-16T17:45:21.331Z,9.60
2019-02-16T17:50:39.298Z,9.60
2019-02-16T17:55:48.533Z,9.33
2019-02-16T18:00:57.292Z,9.47
2019-02-16T18:06:09.082Z,9.08
2019-02-16T18:11:15.117Z,9.09
2019-02-16T18:16:21.246Z,9.07
2019-02-16T18:21:36.298Z,9.19
2019-02-16T18:26:56.560Z,8.88
2019-02-16T18:32:14.088Z,8.75
2019-02-16T18:37:20.070Z,8.75
2019-02-16T18:42:38.180Z,8.43
2019-02-16T18:47:47.010Z,8.18
2019-02-16T18:52:53.077Z,8.36
2019-02-16T18:57:59.061Z,8.28
2019-02-16T19:03:17.002Z,7.98
2019-02-16T19:08:23.056Z,7.97
2019-02-16T19:13:41.346Z,8.29
2019-02-16T19:18:47.414Z,7.84
2019-02-16T19:23:56.595Z,7.68
2019-02-16T19:29:20.818Z,7.48
2019-02-16T19:34:26.841Z,7.59
2019-02-16T19:39:49.130Z,7.74
2019-02-16T19:44:55.157Z,7.62
2019-02-16T19:55:35.074Z,7.48
2019-02-16T20:00:45.268Z,7.37
2019-02-16T20:05:56.079Z,7.38
2019-02-16T20:11:17.126Z,7.07
2019-02-16T20:16:23.150Z,7.07
2019-02-16T20:21:37.971Z,7.05
2019-02-16T20:27:02.407Z,6.98
2019-02-16T20:32:17.480Z,6.65
2019-02-16T20:37:23.503Z,6.53
2019-02-16T20:42:35.730Z,6.75
2019-02-16T20:47:48.095Z,6.42
2019-02-16T20:53:03.140Z,6.11
2019-02-16T20:58:09.176Z,6.13
2019-02-16T21:03:20.999Z,6.31
2019-02-16T21:08:32.497Z,6.06
2019-02-16T21:13:38.516Z,5.97
2019-02-16T21:18:44.681Z,6.22
2019-02-16T21:24:02.462Z,6.11
2019-02-16T21:29:25.343Z,5.68
2019-02-16T21:34:37.409Z,5.71
2019-02-16T21:39:49.513Z,5.76
2019-02-16T21:45:10.908Z,5.53
2019-02-16T21:50:33.225Z,5.73
2019-02-16T21:55:39.209Z,5.58
2019-02-16T22:01:00.698Z,5.73
2019-02-16T22:06:23.077Z,5.45
2019-02-16T22:11:32.500Z,5.40
2019-02-16T22:16:36.901Z,5.46
2019-02-16T22:21:41.392Z,5.19
2019-02-16T22:26:45.746Z,5.41
2019-02-16T22:31:50.313Z,5.07
2019-02-16T22:36:54.891Z,4.84
2019-02-16T22:41:59.278Z,4.77
2019-02-16T22:47:03.679Z,4.84
2019-02-16T22:52:09.046Z,4.48
2019-02-16T22:57:13.569Z,4.43
2019-02-16T23:02:17.935Z,4.11
2019-02-16T23:07:22.371Z,3.94
2019-02-16T23:12:26.764Z,4.23
2019-02-16T23:17:31.222Z,4.16
2019-02-16T23:22:35.621Z,3.77
2019-02-16T23:27:39.970Z,3.85
2019-02-16T23:32:44.436Z,3.99
2019-02-16T23:37:48.810Z,3.63
2019-02-16T23:42:54.412Z,3.95
2019-02-16T23:47:58.786Z,3.93
2019-02-16T23:53:04.226Z,3.87
2019-02-16T23:58:08.571Z,3.71
